createdAt,value
2022-08-14T00:01:03.923Z,18.86
2022-08-14T00:03:40.683Z,18.85
2022-08-14T00:06:25.343Z,18.91
2022-08-14T00:08:59.011Z,18.85
2022-08-14T00:11:32.107Z,18.83
2022-08-14T00:14:01.466Z,18.99
2022-08-14T00:16:41.364Z,18.88
2022-08-14T00:19:19.158Z,18.79
2022-08-14T00:21:50.270Z,18.67
2022-08-14T00:24:23.156Z,18.63
2022-08-14T00:27:02.290Z,18.63
2022-08-14T00:29:39.829Z,18.49
2022-08-14T00:32:52.420Z,18.44
2022-08-14T00:34:57.468Z,18.31
2022-08-14T00:37:25.298Z,18.33
2022-08-14T00:39:53.430Z,18.34
2022-08-14T00:42:55.417Z,18.29
2022-08-14T00:45:14.018Z,18.24
2022-08-14T00:47:45.185Z,18.11
2022-08-14T00:50:17.853Z,18.21
2022-08-14T00:52:47.432Z,18.16
2022-08-14T00:55:20.232Z,18.15
2022-08-14T00:58:10.979Z,18.11
2022-08-14T01:00:47.327Z,18.15
2022-08-14T01:03:21.043Z,17.96
2022-08-14T01:05:52.490Z,17.97
2022-08-14T01:08:58.217Z,17.95
2022-08-14T01:11:11.049Z,17.90
2022-08-14T01:14:00.827Z,17.88
2022-08-14T01:16:31.817Z,17.97
2022-08-14T01:19:17.433Z,17.91
2022-08-14T01:21:53.080Z,17.99
2022-08-14T01:24:24.708Z,18.08
2022-08-14T01:27:00.138Z,18.16
2022-08-14T01:29:58.838Z,18.02
2022-08-14T01:32:23.097Z,17.91
2022-08-14T01:35:19.906Z,17.84
2022-08-14T01:37:54.841Z,17.87
2022-08-14T01:40:36.619Z,17.95
2022-08-14T01:43:13.097Z,17.89
2022-08-14T01:45:41.941Z,17.88
2022-08-14T01:48:13.736Z,17.70
2022-08-14T01:50:44.198Z,17.67
2022-08-14T01:53:14.474Z,17.63
2022-08-14T01:55:42.523Z,17.66
2022-08-14T01:58:19.995Z,17.57
2022-08-14T02:00:55.566Z,17.65
2022-08-14T02:03:24.691Z,17.54
2022-08-14T02:06:03.817Z,17.53
2022-08-14T02:08:53.147Z,17.44
2022-08-14T02:11:24.880Z,17.38
2022-08-14T02:13:56.507Z,17.37
2022-08-14T02:16:26.642Z,17.35
2022-08-14T02:18:58.133Z,17.32
2022-08-14T02:21:28.044Z,17.32
2022-08-14T02:23:57.453Z,17.29
2022-08-14T02:26:29.180Z,17.24
2022-08-14T02:29:00.648Z,17.22
2022-08-14T02:31:42.337Z,17.38
2022-08-14T02:34:21.839Z,17.31
2022-08-14T02:37:03.510Z,17.25
2022-08-14T02:39:37.167Z,17.25
2022-08-14T02:42:06.782Z,17.32
2022-08-14T02:44:42.274Z,17.30
2022-08-14T02:47:14.761Z,17.24
2022-08-14T02:49:43.188Z,17.16
2022-08-14T02:52:56.263Z,17.07
2022-08-14T02:55:02.030Z,17.04
2022-08-14T02:57:39.971Z,16.91
2022-08-14T03:00:10.575Z,17.01
2022-08-14T03:02:56.481Z,16.87
2022-08-14T03:05:32.825Z,16.96
2022-08-14T03:08:09.357Z,16.89
2022-08-14T03:10:49.242Z,16.94
2022-08-14T03:13:21.100Z,16.82
2022-08-14T03:15:56.213Z,16.85
2022-08-14T03:18:31.339Z,16.95
2022-08-14T03:21:02.112Z,16.87
2022-08-14T03:23:34.276Z,16.85
2022-08-14T03:26:12.560Z,16.87
2022-08-14T03:28:48.763Z,16.87
2022-08-14T03:31:22.082Z,16.97
2022-08-14T03:33:54.589Z,16.91
2022-08-14T03:37:39.282Z,16.89
2022-08-14T03:39:22.290Z,16.89
2022-08-14T03:41:55.228Z,16.91
2022-08-14T03:45:20.370Z,16.81
2022-08-14T03:47:12.308Z,16.75
2022-08-14T03:49:44.280Z,16.72
2022-08-14T03:52:37.498Z,16.65
2022-08-14T03:55:03.507Z,16.69
2022-08-14T03:57:32.747Z,16.64
2022-08-14T04:00:13.625Z,16.61
2022-08-14T04:02:55.862Z,16.62
2022-08-14T04:05:26.596Z,16.62
2022-08-14T04:08:08.558Z,16.64
2022-08-14T04:10:43.057Z,16.70
2022-08-14T04:13:18.238Z,16.87
2022-08-14T04:16:01.879Z,16.80
2022-08-14T04:18:33.852Z,16.89
2022-08-14T04:21:03.959Z,17.01
2022-08-14T04:23:33.714Z,17.00
2022-08-14T04:26:03.277Z,17.17
2022-08-14T04:29:08.563Z,17.33
2022-08-14T04:31:25.102Z,17.40
2022-08-14T04:34:16.948Z,17.84
2022-08-14T04:37:07.472Z,18.46
2022-08-14T04:39:56.600Z,18.85
2022-08-14T04:42:47.323Z,19.77
2022-08-14T04:45:23.572Z,21.03
2022-08-14T04:48:10.388Z,21.93
2022-08-14T04:50:44.679Z,22.20
2022-08-14T04:53:15.144Z,22.88
2022-08-14T04:55:45.908Z,23.68
2022-08-14T04:58:21.487Z,24.34
2022-08-14T05:00:52.414Z,24.63
2022-08-14T05:03:21.825Z,25.53
2022-08-14T05:05:55.173Z,26.49
2022-08-14T05:08:31.936Z,27.39
2022-08-14T05:11:13.327Z,27.46
2022-08-14T05:16:31.759Z,27.97
2022-08-14T05:19:18.145Z,29.34
2022-08-14T05:22:00.059Z,29.14
2022-08-14T05:24:35.633Z,29.59
2022-08-14T05:27:05.913Z,30.39
2022-08-14T05:29:33.908Z,31.08
2022-08-14T05:32:07.290Z,32.04
2022-08-14T05:34:35.098Z,33.29
2022-08-14T05:37:04.092Z,33.68
2022-08-14T05:39:35.112Z,33.66
2022-08-14T05:42:09.782Z,33.38
2022-08-14T05:44:49.709Z,33.30
2022-08-14T05:47:23.310Z,33.71
2022-08-14T05:49:51.694Z,33.78
2022-08-14T05:52:26.404Z,34.65
2022-08-14T05:55:08.164Z,35.50
2022-08-14T05:57:36.589Z,34.78
2022-08-14T06:00:05.363Z,35.19
2022-08-14T06:02:35.061Z,35.63
2022-08-14T06:05:03.078Z,36.16
2022-08-14T06:07:31.178Z,35.04
2022-08-14T06:10:04.045Z,35.96
2022-08-14T06:12:56.518Z,36.41
2022-08-14T06:15:20.573Z,37.36
2022-08-14T06:17:56.651Z,35.68
2022-08-14T06:20:28.191Z,35.82
2022-08-14T06:22:56.637Z,35.79
2022-08-14T06:25:25.069Z,38.85
2022-08-14T06:27:54.141Z,38.58
2022-08-14T06:30:30.231Z,37.51
2022-08-14T06:33:15.783Z,37.82
2022-08-14T06:35:43.745Z,36.48
2022-08-14T06:38:17.652Z,36.63
2022-08-14T06:40:46.577Z,38.16
2022-08-14T06:43:15.716Z,37.48
2022-08-14T06:45:50.223Z,37.99
2022-08-14T06:48:24.825Z,38.08
2022-08-14T06:50:53.786Z,38.71
2022-08-14T06:53:28.133Z,37.36
2022-08-14T06:56:02.253Z,37.44
2022-08-14T06:58:31.900Z,36.94
2022-08-14T07:01:25.037Z,36.39
2022-08-14T07:04:22.716Z,36.12
2022-08-14T07:06:55.636Z,37.77
2022-08-14T07:09:43.615Z,40.33
2022-08-14T07:12:51.851Z,40.30
2022-08-14T07:15:07.905Z,41.12
2022-08-14T07:17:36.470Z,39.33
2022-08-14T07:20:07.262Z,41.38
2022-08-14T07:22:55.912Z,40.62
2022-08-14T07:25:32.308Z,39.62
2022-08-14T07:28:01.318Z,39.35
2022-08-14T07:30:34.644Z,41.27
2022-08-14T07:33:03.480Z,39.88
2022-08-14T07:35:37.337Z,41.74
2022-08-14T07:38:23.373Z,43.21
2022-08-14T07:40:53.269Z,40.65
2022-08-14T07:43:23.117Z,41.22
2022-08-14T07:45:53.976Z,41.78
2022-08-14T07:48:24.813Z,39.11
2022-08-14T07:51:03.206Z,42.14
2022-08-14T07:53:40.593Z,41.60
2022-08-14T07:56:43.726Z,38.39
2022-08-14T07:58:58.761Z,39.43
2022-08-14T08:01:29.836Z,40.47
2022-08-14T08:04:01.159Z,41.66
2022-08-14T08:06:31.171Z,42.10
2022-08-14T08:09:03.282Z,40.05
2022-08-14T08:11:37.486Z,40.00
2022-08-14T08:14:17.361Z,39.96
2022-08-14T08:16:47.318Z,39.16
2022-08-14T08:19:19.464Z,39.78
2022-08-14T08:21:49.042Z,38.64
2022-08-14T08:24:18.550Z,38.20
2022-08-14T08:26:50.256Z,37.65
2022-08-14T08:29:25.041Z,37.95
2022-08-14T08:32:02.042Z,39.13
2022-08-14T08:34:45.983Z,38.35
2022-08-14T08:37:16.810Z,37.40
2022-08-14T08:40:02.775Z,37.95
2022-08-14T08:42:38.149Z,37.09
2022-08-14T08:45:12.040Z,37.86
2022-08-14T08:47:41.599Z,37.15
2022-08-14T08:50:23.120Z,38.10
2022-08-14T08:53:02.196Z,38.38
2022-08-14T08:55:34.048Z,39.15
2022-08-14T08:58:05.307Z,37.98
2022-08-14T09:00:35.510Z,38.52
2022-08-14T09:03:11.565Z,38.88
2022-08-14T09:05:50.319Z,37.56
2022-08-14T09:08:26.589Z,39.15
2022-08-14T09:11:01.236Z,37.10
2022-08-14T09:13:30.631Z,37.20
2022-08-14T09:16:06.665Z,37.49
2022-08-14T09:18:47.645Z,39.17
2022-08-14T09:21:16.164Z,38.47
2022-08-14T09:24:27.007Z,38.23
2022-08-14T09:26:36.144Z,36.64
2022-08-14T09:29:08.199Z,36.01
2022-08-14T09:31:52.685Z,36.95
2022-08-14T09:34:29.659Z,38.35
2022-08-14T09:37:16.624Z,38.64
2022-08-14T09:39:57.781Z,35.67
2022-08-14T09:42:52.574Z,37.24
2022-08-14T09:45:23.987Z,38.50
2022-08-14T09:47:54.440Z,37.43
2022-08-14T09:50:26.828Z,35.44
2022-08-14T09:52:58.412Z,34.77
2022-08-14T09:55:41.355Z,35.53
2022-08-14T09:58:19.123Z,34.46
2022-08-14T10:00:48.822Z,34.63
2022-08-14T10:03:28.750Z,34.14
2022-08-14T10:06:09.392Z,36.55
2022-08-14T10:08:51.732Z,38.38
2022-08-14T10:11:24.142Z,40.04
2022-08-14T10:13:57.307Z,38.87
2022-08-14T10:16:30.423Z,35.76
2022-08-14T10:19:09.860Z,35.84
2022-08-14T10:21:58.442Z,35.30
2022-08-14T10:24:36.116Z,37.91
2022-08-14T10:27:18.382Z,36.89
2022-08-14T10:29:50.231Z,36.98
2022-08-14T10:32:29.137Z,36.68
2022-08-14T10:35:06.780Z,36.69
2022-08-14T10:37:44.310Z,36.64
2022-08-14T10:40:38.654Z,35.63
2022-08-14T10:43:05.811Z,34.35
2022-08-14T10:45:46.278Z,34.65
2022-08-14T10:48:24.422Z,35.11
2022-08-14T10:51:08.346Z,33.37
2022-08-14T10:53:40.110Z,32.17
2022-08-14T10:56:21.905Z,35.56
2022-08-14T10:59:04.149Z,36.21
2022-08-14T11:01:38.662Z,35.69
2022-08-14T11:04:25.998Z,35.22
2022-08-14T11:06:56.541Z,36.45
2022-08-14T11:09:26.247Z,37.22
2022-08-14T11:12:34.372Z,36.30
2022-08-14T11:14:59.206Z,34.05
2022-08-14T11:17:28.588Z,32.65
2022-08-14T11:20:01.302Z,34.22
2022-08-14T11:22:56.267Z,34.47
2022-08-14T11:25:21.205Z,33.74
2022-08-14T11:27:49.597Z,33.07
2022-08-14T11:30:49.954Z,34.27
2022-08-14T11:33:09.349Z,34.92
2022-08-14T11:35:47.220Z,35.12
2022-08-14T11:38:17.192Z,34.88
2022-08-14T11:40:47.642Z,35.05
2022-08-14T11:43:16.572Z,35.20
2022-08-14T11:45:49.864Z,34.83
2022-08-14T11:49:03.485Z,35.31
2022-08-14T11:51:14.709Z,36.37
2022-08-14T11:53:51.372Z,35.22
2022-08-14T11:56:25.453Z,34.94
2022-08-14T11:58:58.629Z,33.71
2022-08-14T12:01:30.957Z,33.96
2022-08-14T12:04:21.499Z,33.73
2022-08-14T12:06:58.367Z,33.41
2022-08-14T12:09:31.467Z,33.41
2022-08-14T12:11:59.832Z,33.22
2022-08-14T12:14:30.479Z,32.82
2022-08-14T12:17:11.782Z,32.67
2022-08-14T12:19:51.203Z,32.95
2022-08-14T12:22:29.581Z,33.29
2022-08-14T12:24:58.360Z,33.06
2022-08-14T12:27:41.267Z,32.99
2022-08-14T12:30:11.321Z,33.03
2022-08-14T12:32:43.567Z,33.07
2022-08-14T12:35:12.503Z,32.47
2022-08-14T12:37:40.900Z,32.22
2022-08-14T12:40:20.918Z,32.02
2022-08-14T12:42:52.692Z,32.17
2022-08-14T12:45:32.764Z,32.00
2022-08-14T12:48:20.611Z,31.30
2022-08-14T12:50:52.365Z,32.05
2022-08-14T12:53:21.082Z,32.01
2022-08-14T12:56:21.454Z,32.54
2022-08-14T12:58:52.342Z,32.71
2022-08-14T13:01:22.876Z,32.35
2022-08-14T13:03:52.958Z,32.01
2022-08-14T13:06:24.932Z,32.10
2022-08-14T13:09:00.165Z,32.25
2022-08-14T13:11:33.789Z,32.19
2022-08-14T13:14:03.869Z,32.13
2022-08-14T13:16:37.916Z,31.77
2022-08-14T13:19:12.511Z,31.67
2022-08-14T13:22:04.942Z,31.53
2022-08-14T13:24:33.546Z,31.71
2022-08-14T13:27:04.733Z,31.69
2022-08-14T13:29:40.474Z,31.72
2022-08-14T13:32:10.034Z,31.59
2022-08-14T13:34:45.508Z,32.00
2022-08-14T13:37:15.716Z,32.38
2022-08-14T13:39:57.346Z,31.40
2022-08-14T13:42:35.377Z,31.75
2022-08-14T13:45:06.776Z,32.06
2022-08-14T13:47:35.819Z,32.29
2022-08-14T13:50:09.315Z,32.17
2022-08-14T13:52:51.987Z,32.07
2022-08-14T13:55:23.942Z,31.87
2022-08-14T13:58:02.965Z,32.10
2022-08-14T14:00:35.653Z,31.96
2022-08-14T14:03:21.900Z,32.02
2022-08-14T14:05:54.573Z,31.87
2022-08-14T14:08:46.092Z,32.05
2022-08-14T14:11:13.406Z,32.09
2022-08-14T14:13:45.155Z,32.26
2022-08-14T14:16:26.689Z,32.72
2022-08-14T14:19:08.829Z,31.58
2022-08-14T14:21:40.816Z,31.63
2022-08-14T14:24:15.531Z,32.46
2022-08-14T14:26:47.249Z,32.99
2022-08-14T14:29:16.782Z,32.89
2022-08-14T14:31:48.685Z,32.75
2022-08-14T14:34:29.139Z,33.01
2022-08-14T14:37:03.214Z,33.61
2022-08-14T14:39:37.619Z,33.02
2022-08-14T14:42:09.296Z,32.81
2022-08-14T14:44:42.452Z,32.54
2022-08-14T14:47:12.384Z,32.28
2022-08-14T14:49:54.510Z,32.14
2022-08-14T14:52:28.580Z,31.84
2022-08-14T14:54:58.239Z,31.94
2022-08-14T14:57:35.616Z,32.11
2022-08-14T15:00:06.560Z,31.98
2022-08-14T15:02:42.129Z,32.04
2022-08-14T15:05:11.454Z,31.76
2022-08-14T15:07:42.999Z,31.68
2022-08-14T15:10:26.695Z,31.76
2022-08-14T15:13:00.280Z,31.82
2022-08-14T15:15:32.660Z,31.89
2022-08-14T15:18:01.268Z,31.65
2022-08-14T15:20:31.229Z,31.70
2022-08-14T15:23:12.233Z,31.67
2022-08-14T15:25:40.864Z,31.67
2022-08-14T15:28:13.074Z,31.71
2022-08-14T15:30:57.896Z,31.75
2022-08-14T15:34:01.243Z,31.55
2022-08-14T15:36:29.885Z,31.16
2022-08-14T15:38:59.793Z,31.00
2022-08-14T15:41:33.787Z,31.07
2022-08-14T15:44:25.234Z,30.88
2022-08-14T15:46:54.452Z,31.08
2022-08-14T15:49:24.234Z,30.57
2022-08-14T15:51:52.033Z,30.81
2022-08-14T15:54:22.012Z,30.85
2022-08-14T15:56:58.463Z,30.73
2022-08-14T15:59:27.394Z,30.60
2022-08-14T16:01:57.214Z,30.76
2022-08-14T16:04:25.666Z,30.75
2022-08-14T16:06:54.610Z,30.66
2022-08-14T16:09:25.122Z,30.72
2022-08-14T16:11:55.143Z,30.70
2022-08-14T16:14:24.241Z,30.80
2022-08-14T16:17:00.487Z,30.66
2022-08-14T16:19:48.066Z,30.71
2022-08-14T16:22:59.553Z,30.92
2022-08-14T16:25:08.967Z,30.57
2022-08-14T16:27:40.975Z,30.68
2022-08-14T16:30:27.811Z,30.73
2022-08-14T16:32:59.055Z,30.43
2022-08-14T16:35:42.719Z,30.58
2022-08-14T16:38:44.571Z,30.47
2022-08-14T16:41:26.334Z,30.17
2022-08-14T16:44:01.787Z,30.08
2022-08-14T16:46:32.838Z,30.08
2022-08-14T16:49:01.741Z,30.06
2022-08-14T16:51:34.949Z,30.05
2022-08-14T16:54:34.278Z,29.98
2022-08-14T16:56:57.238Z,29.89
2022-08-14T16:59:30.430Z,29.71
2022-08-14T17:02:13.831Z,29.31
2022-08-14T17:04:49.218Z,29.37
2022-08-14T17:07:17.154Z,29.32
2022-08-14T17:09:48.769Z,29.57
2022-08-14T17:12:28.525Z,29.42
2022-08-14T17:15:01.872Z,29.30
2022-08-14T17:17:44.150Z,29.20
2022-08-14T17:20:53.504Z,29.30
2022-08-14T17:23:11.104Z,29.18
2022-08-14T17:25:39.636Z,29.20
2022-08-14T17:28:49.940Z,29.20
2022-08-14T17:31:04.089Z,29.23
2022-08-14T17:33:33.800Z,29.27
2022-08-14T17:36:21.488Z,29.19
2022-08-14T17:39:06.230Z,28.78
2022-08-14T17:41:43.409Z,28.81
2022-08-14T17:44:20.109Z,28.96
2022-08-14T17:46:55.309Z,28.97
2022-08-14T17:49:28.028Z,28.49
2022-08-14T17:52:07.678Z,28.54
2022-08-14T17:54:47.602Z,28.47
2022-08-14T17:57:22.975Z,28.39
2022-08-14T17:59:54.428Z,28.36
2022-08-14T18:02:31.214Z,28.26
2022-08-14T18:05:03.031Z,28.18
2022-08-14T18:07:59.780Z,28.03
2022-08-14T18:10:54.862Z,27.95
2022-08-14T18:13:10.939Z,27.93
2022-08-14T18:15:42.845Z,28.11
2022-08-14T18:18:12.316Z,28.16
2022-08-14T18:21:24.200Z,28.21
2022-08-14T18:23:32.194Z,27.98
2022-08-14T18:26:04.894Z,28.00
2022-08-14T18:28:51.354Z,27.93
2022-08-14T18:31:43.540Z,27.84
2022-08-14T18:34:32.087Z,27.85
2022-08-14T18:37:14.268Z,27.74
2022-08-14T18:40:02.307Z,27.86
2022-08-14T18:42:45.410Z,27.65
2022-08-14T18:45:19.006Z,27.65
2022-08-14T18:48:15.963Z,27.63
2022-08-14T18:50:52.601Z,27.52
2022-08-14T18:53:24.862Z,27.38
2022-08-14T18:55:56.208Z,27.31
2022-08-14T18:58:34.199Z,27.24
2022-08-14T19:01:04.498Z,27.11
2022-08-14T19:04:02.189Z,27.14
2022-08-14T19:06:56.445Z,26.99
2022-08-14T19:09:57.921Z,26.86
2022-08-14T19:12:58.785Z,26.70
2022-08-14T19:15:32.611Z,26.58
2022-08-14T19:18:14.162Z,26.57
2022-08-14T19:20:52.866Z,26.59
2022-08-14T19:23:40.619Z,26.56
2022-08-14T19:26:34.695Z,26.45
2022-08-14T19:29:23.544Z,26.30
2022-08-14T19:31:55.747Z,26.19
2022-08-14T19:34:40.413Z,26.09
2022-08-14T19:37:48.467Z,26.00
2022-08-14T19:40:33.961Z,25.92
2022-08-14T19:43:06.511Z,25.85
2022-08-14T19:45:35.785Z,25.80
2022-08-14T19:48:11.331Z,25.80
2022-08-14T19:50:41.059Z,25.70
2022-08-14T19:53:17.545Z,25.69
2022-08-14T19:55:58.700Z,25.65
2022-08-14T19:58:38.863Z,25.66
2022-08-14T20:01:37.579Z,25.70
2022-08-14T20:04:46.974Z,25.53
2022-08-14T20:07:00.442Z,25.50
2022-08-14T20:11:07.362Z,25.45
2022-08-14T20:12:29.239Z,25.39
2022-08-14T20:15:06.198Z,25.30
2022-08-14T20:17:52.218Z,25.19
2022-08-14T20:20:32.026Z,25.17
2022-08-14T20:23:02.778Z,24.99
2022-08-14T20:25:45.627Z,24.98
2022-08-14T20:28:35.641Z,24.89
2022-08-14T20:31:15.834Z,24.85
2022-08-14T20:34:04.500Z,24.76
2022-08-14T20:36:38.398Z,24.52
2022-08-14T20:39:10.219Z,24.28
2022-08-14T20:41:51.086Z,24.18
2022-08-14T20:44:41.796Z,24.10
2022-08-14T20:47:16.235Z,24.18
2022-08-14T20:49:44.727Z,24.12
2022-08-14T20:52:18.974Z,24.01
2022-08-14T20:54:50.089Z,23.95
2022-08-14T20:57:21.162Z,23.97
2022-08-14T20:59:53.399Z,23.86
2022-08-14T21:02:46.843Z,23.75
2022-08-14T21:05:33.296Z,23.68
2022-08-14T21:08:08.436Z,23.61
2022-08-14T21:10:51.384Z,23.57
2022-08-14T21:13:27.771Z,23.49
2022-08-14T21:16:25.930Z,23.38
2022-08-14T21:19:00.040Z,23.34
2022-08-14T21:21:40.890Z,23.22
2022-08-14T21:24:39.956Z,23.12
2022-08-14T21:27:04.462Z,23.02
2022-08-14T21:29:54.382Z,22.86
2022-08-14T21:32:35.323Z,22.81
2022-08-14T21:35:08.977Z,22.84
2022-08-14T21:37:47.514Z,22.80
2022-08-14T21:40:33.203Z,22.75
2022-08-14T21:43:05.147Z,22.82
2022-08-14T21:45:35.786Z,22.95
2022-08-14T21:48:10.525Z,22.99
2022-08-14T21:51:00.246Z,23.00
2022-08-14T21:53:33.879Z,22.99
2022-08-14T21:56:03.162Z,23.04
2022-08-14T21:58:52.300Z,23.11
2022-08-14T22:01:20.350Z,22.93
2022-08-14T22:03:54.995Z,22.90
2022-08-14T22:06:28.600Z,22.99
2022-08-14T22:08:58.360Z,22.93
2022-08-14T22:11:27.504Z,23.09
2022-08-14T22:13:56.026Z,22.94
2022-08-14T22:17:02.274Z,23.05
2022-08-14T22:19:17.015Z,23.07
2022-08-14T22:21:51.167Z,23.04
2022-08-14T22:24:38.059Z,22.98
2022-08-14T22:27:10.233Z,22.90
2022-08-14T22:29:39.760Z,22.99
2022-08-14T22:32:08.159Z,22.94
2022-08-14T22:34:36.515Z,22.85
2022-08-14T22:37:10.387Z,22.66
2022-08-14T22:40:46.063Z,22.58
2022-08-14T22:42:26.201Z,22.48
2022-08-14T22:45:07.167Z,22.49
2022-08-14T22:47:40.723Z,22.45
2022-08-14T22:50:29.223Z,22.37
2022-08-14T22:53:00.497Z,22.35
2022-08-14T22:55:28.676Z,22.21
2022-08-14T22:57:56.424Z,22.17
2022-08-14T23:00:30.093Z,22.17
2022-08-14T23:03:01.983Z,22.09
2022-08-14T23:05:40.100Z,22.06
2022-08-14T23:08:59.675Z,21.97
2022-08-14T23:11:10.558Z,21.89
2022-08-14T23:13:39.533Z,21.77
2022-08-14T23:16:08.805Z,21.71
2022-08-14T23:18:38.925Z,21.66
2022-08-14T23:21:11.167Z,21.64
2022-08-14T23:23:41.625Z,21.69
2022-08-14T23:26:47.842Z,21.63
2022-08-14T23:28:59.618Z,21.71
2022-08-14T23:31:35.849Z,21.69
2022-08-14T23:34:06.960Z,21.80
2022-08-14T23:36:38.006Z,21.68
2022-08-14T23:39:29.474Z,21.61
2022-08-14T23:42:02.437Z,21.47
2022-08-14T23:44:35.287Z,21.30
2022-08-14T23:47:11.682Z,21.09
2022-08-14T23:50:01.328Z,20.97
2022-08-14T23:52:51.309Z,20.87
2022-08-14T23:55:29.385Z,20.76
2022-08-14T23:58:00.446Z,20.79
